Time;durP1;ratioP1;P1;durP2;ratioP2;P2;SDS_P1;SDS_P2;PMS_P1;PMS_P2;Temp;Humidity;BMP_temperature;BMP_pressure;BME280_temperature;BME280_humidity;BME280_pressure;Samples;Min_cycle;Max_cycle;Signal;HPM_P1;HPM_P2
2022/12/04 00:03:16;;;;;;;;;42.50;32.25;;;;;;;;6488510;39;8903;-57
2022/12/04 00:09:18;;;;;;;;;39.25;33.00;;;;;;;;6488520;31;9093;-58
2022/12/04 00:15:21;;;;;;;;;33.25;32.00;;;;;;;;6488859;39;8877;-54
2022/12/04 00:21:27;;;;;;;;;42.50;35.00;;;;;;;;6488542;39;8883;-58
2022/12/04 00:27:29;;;;;;;;;36.25;27.75;;;;;;;;6487114;39;8968;-55
2022/12/04 00:33:32;;;;;;;;;27.75;21.25;;;;;;;;6488638;39;8879;-56
2022/12/04 00:39:34;;;;;;;;;35.50;30.25;;;;;;;;6488198;39;8864;-59
2022/12/04 00:45:37;;;;;;;;;24.00;21.00;;;;;;;;6487632;39;8914;-56
2022/12/04 00:51:39;;;;;;;;;28.25;25.50;;;;;;;;6488321;31;9003;-58
2022/12/04 00:57:41;;;;;;;;;32.25;25.50;;;;;;;;6487565;39;9628;-56
2022/12/04 01:03:45;;;;;;;;;26.50;22.50;;;;;;;;6487585;46;8915;-56
2022/12/04 01:09:49;;;;;;;;;28.50;21.00;;;;;;;;6487573;31;9010;-57
2022/12/04 01:15:51;;;;;;;;;26.75;23.00;;;;;;;;6488081;39;8884;-56
2022/12/04 01:21:54;;;;;;;;;23.75;19.50;;;;;;;;6488083;39;8871;-56
2022/12/04 01:27:57;;;;;;;;;24.25;22.50;;;;;;;;6487108;39;8974;-59
2022/12/04 01:33:59;;;;;;;;;27.25;23.00;;;;;;;;6487691;39;8847;-58
2022/12/04 01:40:02;;;;;;;;;30.25;27.75;;;;;;;;6486293;47;8884;-57
2022/12/04 01:46:06;;;;;;;;;26.25;20.50;;;;;;;;6505409;36;8910;-57
2022/12/04 01:52:14;;;;;;;;;29.50;20.50;;;;;;;;6488913;31;8901;-57
2022/12/04 01:58:25;;;;;;;;;21.75;15.25;;;;;;;;6488929;46;8911;-58
2022/12/04 02:04:29;;;;;;;;;24.00;23.00;;;;;;;;6490598;31;9001;-57
2022/12/04 02:10:43;;;;;;;;;14.75;13.50;;;;;;;;6488304;31;8931;-57
2022/12/04 02:16:53;;;;;;;;;19.25;16.75;;;;;;;;6489465;39;8966;-57
2022/12/04 02:23:17;;;;;;;;;17.25;15.25;;;;;;;;6488887;39;9019;-58
2022/12/04 02:29:45;;;;;;;;;16.00;13.50;;;;;;;;6489092;39;8991;-57
2022/12/04 02:35:57;;;;;;;;;17.50;16.00;;;;;;;;6487884;39;8907;-58
2022/12/04 02:42:11;;;;;;;;;14.50;14.50;;;;;;;;6489114;39;8889;-56
2022/12/04 02:48:18;;;;;;;;;14.50;14.50;;;;;;;;6489712;39;8974;-56
2022/12/04 02:54:29;;;;;;;;;25.25;20.00;;;;;;;;6489068;39;8839;-57
2022/12/04 03:00:33;;;;;;;;;10.50;10.50;;;;;;;;6488837;46;8886;-57
2022/12/04 03:06:39;;;;;;;;;21.75;20.75;;;;;;;;6487489;31;8963;-56
2022/12/04 03:12:50;;;;;;;;;18.75;15.00;;;;;;;;6489457;31;8927;-59
2022/12/04 03:18:57;;;;;;;;;23.75;18.75;;;;;;;;6488701;39;8904;-58
2022/12/04 03:25:03;;;;;;;;;18.25;17.50;;;;;;;;6488729;31;9603;-57
2022/12/04 03:31:08;;;;;;;;;17.25;16.00;;;;;;;;6488627;46;8888;-58
2022/12/04 03:37:21;;;;;;;;;21.75;19.00;;;;;;;;6488014;46;8963;-58
2022/12/04 03:43:50;;;;;;;;;18.75;18.75;;;;;;;;6489590;39;8973;-58
2022/12/04 03:50:11;;;;;;;;;20.75;19.50;;;;;;;;6489809;31;8909;-56
2022/12/04 03:56:25;;;;;;;;;17.25;16.00;;;;;;;;5945600;36;10001664;-57
2022/12/04 04:02:31;;;;;;;;;13.75;13.75;;;;;;;;6484911;39;8972;-57
2022/12/04 04:08:38;;;;;;;;;17.75;17.50;;;;;;;;6485008;39;8943;-58
2022/12/04 04:27:37;;;;;;;;;18.00;17.00;;;;;;;;6484448;46;8984;-56
2022/12/04 04:34:07;;;;;;;;;19.50;16.00;;;;;;;;6485049;39;8869;-59
2022/12/04 04:40:25;;;;;;;;;20.25;18.25;;;;;;;;6488130;39;9606;-56
2022/12/04 04:46:37;;;;;;;;;18.75;15.75;;;;;;;;6488095;39;9991;-57
2022/12/04 04:52:44;;;;;;;;;17.25;15.50;;;;;;;;6487779;39;8887;-58
2022/12/04 04:58:50;;;;;;;;;23.50;17.25;;;;;;;;6487839;39;8960;-58
2022/12/04 05:04:54;;;;;;;;;26.00;19.50;;;;;;;;6488758;31;8944;-56
2022/12/04 05:10:57;;;;;;;;;22.50;18.25;;;;;;;;6487432;31;8877;-56
2022/12/04 05:17:04;;;;;;;;;17.25;13.25;;;;;;;;6487530;47;8892;-56
2022/12/04 05:23:13;;;;;;;;;22.00;20.50;;;;;;;;6490042;39;8885;-58
2022/12/04 05:29:16;;;;;;;;;20.50;18.75;;;;;;;;6489819;39;8971;-58
2022/12/04 05:35:19;;;;;;;;;15.75;9.00;;;;;;;;6489251;39;8889;-56
2022/12/04 05:41:24;;;;;;;;;17.50;17.50;;;;;;;;6489718;39;8913;-58
2022/12/04 05:47:28;;;;;;;;;28.50;24.00;;;;;;;;6490814;31;8885;-57
2022/12/04 05:53:31;;;;;;;;;27.50;18.75;;;;;;;;6491494;36;8840;-58
2022/12/04 05:59:33;;;;;;;;;23.50;22.00;;;;;;;;6489935;39;9819;-55
2022/12/04 06:05:36;;;;;;;;;28.50;25.00;;;;;;;;6488798;46;9006;-58
2022/12/04 06:11:40;;;;;;;;;26.00;25.50;;;;;;;;6489500;39;8880;-59
2022/12/04 06:17:42;;;;;;;;;27.50;22.00;;;;;;;;6489145;39;8886;-57
2022/12/04 06:23:44;;;;;;;;;22.75;19.75;;;;;;;;6489818;39;8853;-58
2022/12/04 06:29:47;;;;;;;;;21.75;21.75;;;;;;;;6489169;39;8933;-57
2022/12/04 06:35:57;;;;;;;;;22.50;21.25;;;;;;;;6489234;39;9450;-59
2022/12/04 06:42:00;;;;;;;;;32.50;29.00;;;;;;;;6489217;39;9512;-57
2022/12/04 06:48:03;;;;;;;;;26.25;26.25;;;;;;;;6489272;39;8917;-56
2022/12/04 06:54:08;;;;;;;;;28.00;25.50;;;;;;;;6490280;39;8852;-59
2022/12/04 07:00:11;;;;;;;;;36.25;28.50;;;;;;;;6488933;31;8939;-58
2022/12/04 07:06:31;;;;;;;;;28.75;21.75;;;;;;;;6490309;39;8963;-58
2022/12/04 07:12:34;;;;;;;;;29.00;24.25;;;;;;;;6489233;39;8877;-55
2022/12/04 07:18:39;;;;;;;;;22.00;19.75;;;;;;;;6489047;39;8856;-57
2022/12/04 07:24:41;;;;;;;;;18.25;18.25;;;;;;;;6488756;39;8885;-59
2022/12/04 07:30:44;;;;;;;;;30.00;21.75;;;;;;;;6488046;46;8915;-59
2022/12/04 07:36:46;;;;;;;;;30.00;25.25;;;;;;;;6489528;36;9582;-58
2022/12/04 07:42:50;;;;;;;;;26.50;26.00;;;;;;;;6487669;39;8927;-57
2022/12/04 07:48:56;;;;;;;;;27.50;21.75;;;;;;;;6488436;31;8898;-58
2022/12/04 07:55:00;;;;;;;;;28.00;27.75;;;;;;;;6488521;39;8931;-57
2022/12/04 08:01:22;;;;;;;;;29.67;22.67;;;;;;;;6488887;31;8978;-58
2022/12/04 08:07:25;;;;;;;;;28.50;23.50;;;;;;;;6489554;39;9664;-56
2022/12/04 08:13:27;;;;;;;;;28.25;23.25;;;;;;;;6487340;39;8866;-56
2022/12/04 08:19:31;;;;;;;;;27.75;25.00;;;;;;;;6488825;39;8872;-57
2022/12/04 08:25:37;;;;;;;;;31.25;28.25;;;;;;;;6487972;39;8964;-55
2022/12/04 08:31:42;;;;;;;;;26.25;22.00;;;;;;;;6488525;46;8869;-56
2022/12/04 08:37:44;;;;;;;;;30.25;24.00;;;;;;;;6488315;31;8989;-58
2022/12/04 08:43:47;;;;;;;;;22.50;21.25;;;;;;;;6488355;39;8883;-58
2022/12/04 08:49:49;;;;;;;;;24.00;18.25;;;;;;;;6488327;31;9111;-58
2022/12/04 08:55:53;;;;;;;;;22.50;20.00;;;;;;;;6486990;39;8981;-57
2022/12/04 09:01:55;;;;;;;;;23.50;21.25;;;;;;;;6487256;39;8882;-58
2022/12/04 09:07:58;;;;;;;;;31.00;27.75;;;;;;;;6488208;39;8973;-57
